Time;durP1;ratioP1;P1;durP2;ratioP2;P2;SDS_P1;SDS_P2;PMS_P1;PMS_P2;Temp;Humidity;BMP_temperature;BMP_pressure;BME280_temperature;BME280_humidity;BME280_pressure;Samples;Min_cycle;Max_cycle;Signal;HPM_P1;HPM_P2
2022/08/14 00:00:50;;;;;;;63.85;51.97;;;27.50;46.00;;;;;;4940730;28;93991;-55
2022/08/14 00:03:20;;;;;;;63.95;52.05;;;27.40;45.90;;;;;;4942047;28;95476;-55
2022/08/14 00:05:45;;;;;;;65.40;52.00;;;27.40;45.30;;;;;;4935345;28;96062;-54
2022/08/14 00:08:11;;;;;;;63.85;51.75;;;27.30;45.10;;;;;;4943245;28;97540;-54
2022/08/14 00:10:37;;;;;;;64.68;52.00;;;27.40;44.80;;;;;;4939012;28;97916;-52
2022/08/14 00:13:03;;;;;;;64.20;51.97;;;27.40;44.40;;;;;;4951322;28;100734;-54
2022/08/14 00:15:31;;;;;;;64.18;52.03;;;27.30;44.40;;;;;;4937500;28;95709;-50
2022/08/14 00:17:57;;;;;;;64.22;52.03;;;27.20;43.70;;;;;;4940615;28;96778;-50
2022/08/14 00:20:31;;;;;;;64.13;51.88;;;27.30;43.60;;;;;;4942366;28;103488;-54
2022/08/14 00:22:57;;;;;;;64.30;51.90;;;27.30;43.80;;;;;;4939275;28;96143;-54
2022/08/14 00:25:24;;;;;;;65.22;52.05;;;27.30;43.00;;;;;;4941480;28;97286;-52
2022/08/14 00:27:49;;;;;;;65.15;51.85;;;27.20;43.60;;;;;;4940821;28;96314;-52
2022/08/14 00:30:15;;;;;;;63.58;51.97;;;27.30;43.80;;;;;;4949440;28;95036;-55
2022/08/14 00:32:41;;;;;;;63.35;51.80;;;27.30;43.50;;;;;;4943853;28;100634;-53
2022/08/14 00:35:09;;;;;;;64.88;51.88;;;27.30;43.40;;;;;;4942228;28;95223;-55
2022/08/14 00:37:40;;;;;;;65.38;52.00;;;27.30;43.40;;;;;;4941626;28;94910;-52
2022/08/14 00:40:08;;;;;;;64.07;51.97;;;27.30;43.80;;;;;;4949532;28;95314;-53
2022/08/14 00:42:34;;;;;;;64.63;51.92;;;27.30;44.20;;;;;;4934351;28;95453;-53
2022/08/14 00:45:00;;;;;;;65.38;51.78;;;27.40;44.20;;;;;;4951196;28;95133;-52
2022/08/14 00:47:25;;;;;;;69.20;52.03;;;27.40;44.00;;;;;;4950623;28;94829;-54
2022/08/14 00:49:52;;;;;;;64.15;51.88;;;27.30;43.80;;;;;;4948590;28;94640;-55
2022/08/14 00:52:20;;;;;;;63.58;52.05;;;27.30;43.80;;;;;;4943385;28;97851;-54
2022/08/14 00:54:52;;;;;;;63.22;52.00;;;27.30;43.90;;;;;;4943355;28;97014;-53
2022/08/14 00:57:22;;;;;;;63.22;51.85;;;27.30;43.90;;;;;;4938850;28;100480;-55
2022/08/14 00:59:48;;;;;;;63.05;51.55;;;27.20;43.80;;;;;;4946692;28;95742;-55
2022/08/14 01:02:17;;;;;;;63.00;51.63;;;27.20;44.20;;;;;;4945652;28;95372;-52
2022/08/14 01:04:44;;;;;;;63.60;51.78;;;27.20;44.00;;;;;;4948970;28;95804;-51
2022/08/14 01:07:10;;;;;;;62.80;51.78;;;27.10;43.90;;;;;;4942791;28;95150;-55
2022/08/14 01:09:37;;;;;;;63.97;52.13;;;27.10;43.90;;;;;;4946562;28;95182;-54
2022/08/14 01:12:04;;;;;;;64.68;51.85;;;27.10;43.90;;;;;;4946079;28;95263;-54
2022/08/14 01:14:31;;;;;;;63.95;52.17;;;27.10;44.20;;;;;;4949734;28;95922;-56
2022/08/14 01:16:58;;;;;;;63.17;51.95;;;27.10;44.40;;;;;;4940971;28;96041;-54
2022/08/14 01:22:10;;;;;;;65.68;51.75;;;27.00;44.10;;;;;;4949645;28;95915;-52
2022/08/14 01:24:36;;;;;;;63.40;51.70;;;27.00;44.50;;;;;;4946206;28;96922;-52
2022/08/14 01:27:04;;;;;;;64.20;51.85;;;27.00;44.60;;;;;;4953758;28;95625;-54
2022/08/14 01:29:36;;;;;;;62.95;51.70;;;27.00;44.50;;;;;;4947896;28;95139;-52
2022/08/14 01:32:03;;;;;;;62.67;51.75;;;26.90;44.60;;;;;;4941411;28;95903;-55
2022/08/14 01:34:31;;;;;;;63.10;51.70;;;27.00;44.70;;;;;;4942544;28;96110;-54
2022/08/14 01:36:58;;;;;;;64.20;51.72;;;26.90;44.50;;;;;;4936059;28;97099;-54
2022/08/14 01:39:24;;;;;;;62.40;51.35;;;26.90;44.80;;;;;;4950197;28;94235;-54
2022/08/14 01:41:59;;;;;;;66.78;51.75;;;26.90;44.90;;;;;;4948561;28;96441;-54
2022/08/14 01:44:30;;;;;;;62.88;51.70;;;26.90;44.20;;;;;;4949179;28;95071;-54
2022/08/14 01:47:00;;;;;;;62.35;51.35;;;26.80;44.20;;;;;;4948438;28;96346;-53
2022/08/14 01:49:27;;;;;;;63.20;51.70;;;26.80;44.20;;;;;;4949168;28;95172;-53
2022/08/14 01:51:55;;;;;;;63.88;51.72;;;26.80;44.80;;;;;;4954738;28;95281;-55
2022/08/14 01:54:22;;;;;;;63.90;51.60;;;26.70;44.50;;;;;;4939233;28;94730;-56
2022/08/14 01:56:55;;;;;;;62.97;51.60;;;26.80;44.40;;;;;;4950569;28;99265;-53
2022/08/14 01:59:32;;;;;;;66.45;51.85;;;26.80;44.50;;;;;;4952655;28;95031;-55
2022/08/14 02:02:08;;;;;;;63.53;51.42;;;26.70;44.50;;;;;;4953293;28;95413;-54
2022/08/14 02:04:35;;;;;;;62.35;51.53;;;26.70;44.80;;;;;;4955476;28;95742;-55
2022/08/14 02:07:03;;;;;;;65.43;51.65;;;26.70;44.70;;;;;;4950755;28;95521;-55
2022/08/14 02:09:36;;;;;;;63.75;51.42;;;26.70;44.70;;;;;;4960359;28;95445;-52
2022/08/14 02:12:04;;;;;;;63.75;51.60;;;26.70;45.00;;;;;;4948875;28;96848;-53
2022/08/14 02:14:30;;;;;;;64.13;51.50;;;26.60;44.80;;;;;;4960470;28;95375;-55
2022/08/14 02:16:56;;;;;;;63.58;51.65;;;26.60;44.80;;;;;;4954386;28;94749;-55
2022/08/14 02:19:25;;;;;;;63.22;51.47;;;26.60;44.60;;;;;;4953125;28;94827;-55
2022/08/14 02:21:55;;;;;;;63.38;51.47;;;26.60;44.80;;;;;;4944616;28;96820;-54
2022/08/14 02:24:23;;;;;;;63.30;51.45;;;26.70;44.80;;;;;;4944421;28;96076;-55
2022/08/14 02:26:50;;;;;;;62.63;51.33;;;26.60;44.80;;;;;;4944273;28;97229;-56
2022/08/14 02:29:21;;;;;;;62.72;51.53;;;26.70;45.00;;;;;;4941255;28;94173;-50
2022/08/14 02:31:50;;;;;;;64.83;51.70;;;26.70;44.70;;;;;;4934687;28;96301;-47
2022/08/14 02:34:28;;;;;;;65.35;51.55;;;26.60;44.70;;;;;;4946525;28;95191;-50
2022/08/14 02:37:01;;;;;;;62.65;51.35;;;26.60;44.80;;;;;;4947922;28;96051;-48
2022/08/14 02:39:28;;;;;;;64.50;51.53;;;26.60;44.80;;;;;;4944288;28;95146;-49
2022/08/14 02:41:54;;;;;;;63.00;51.20;;;26.60;44.80;;;;;;4951389;28;95414;-53
2022/08/14 02:44:21;;;;;;;63.53;51.72;;;26.70;44.90;;;;;;4945632;28;95214;-49
2022/08/14 02:46:49;;;;;;;62.85;51.45;;;26.70;45.00;;;;;;4951198;28;95119;-50
2022/08/14 02:49:15;;;;;;;62.78;51.45;;;26.60;45.10;;;;;;4941864;28;95656;-52
2022/08/14 02:51:41;;;;;;;62.30;51.42;;;26.70;45.20;;;;;;4941887;28;95895;-50
2022/08/14 02:54:08;;;;;;;62.45;51.33;;;26.70;45.30;;;;;;4948921;28;94331;-48
2022/08/14 02:56:37;;;;;;;62.40;51.40;;;26.60;45.40;;;;;;4954575;28;95108;-49
2022/08/14 02:59:06;;;;;;;63.50;51.63;;;26.60;45.40;;;;;;4941248;28;95064;-48
2022/08/14 03:01:33;;;;;;;62.63;51.40;;;26.60;45.50;;;;;;4943673;28;96051;-47
2022/08/14 03:03:59;;;;;;;62.47;51.30;;;26.60;45.50;;;;;;4946707;28;96434;-52
2022/08/14 03:06:25;;;;;;;62.28;51.45;;;26.60;45.60;;;;;;4951593;28;96106;-49
2022/08/14 03:08:52;;;;;;;64.32;51.22;;;26.60;45.60;;;;;;4947301;28;95249;-53
2022/08/14 03:11:19;;;;;;;62.53;51.28;;;26.50;45.70;;;;;;4949450;28;95680;-53
2022/08/14 03:13:50;;;;;;;62.60;51.38;;;26.50;45.80;;;;;;4945234;28;100708;-49
2022/08/14 03:16:21;;;;;;;62.97;51.35;;;26.50;45.90;;;;;;4942935;28;95184;-51
2022/08/14 03:18:48;;;;;;;62.88;51.47;;;26.50;46.00;;;;;;4952359;28;94910;-51
2022/08/14 03:21:16;;;;;;;62.10;51.42;;;26.50;46.00;;;;;;4951763;28;95494;-48
2022/08/14 03:23:47;;;;;;;62.90;51.55;;;26.50;46.20;;;;;;4948574;28;101075;-50
2022/08/14 03:26:15;;;;;;;62.43;51.27;;;26.50;46.20;;;;;;4949498;28;95661;-48
2022/08/14 03:28:43;;;;;;;63.42;51.35;;;26.50;46.30;;;;;;4944235;28;95170;-49
2022/08/14 03:31:10;;;;;;;62.50;51.30;;;26.50;46.40;;;;;;4948366;28;95317;-49
2022/08/14 03:33:37;;;;;;;62.15;51.30;;;26.50;46.30;;;;;;4948911;28;96334;-49
2022/08/14 03:36:08;;;;;;;65.07;51.55;;;26.50;46.40;;;;;;4952558;28;95065;-48
2022/08/14 03:38:41;;;;;;;61.95;51.15;;;26.40;46.40;;;;;;4949973;28;95134;-47
2022/08/14 03:41:13;;;;;;;61.97;51.20;;;26.40;46.50;;;;;;4945001;28;99860;-49
2022/08/14 03:43:40;;;;;;;62.67;51.45;;;26.40;46.60;;;;;;4945420;28;95865;-50
2022/08/14 03:46:06;;;;;;;61.90;51.13;;;26.40;46.70;;;;;;4948498;28;95072;-53
2022/08/14 03:48:31;;;;;;;62.33;51.05;;;26.40;46.70;;;;;;4945171;28;95087;-53
2022/08/14 03:50:58;;;;;;;62.10;51.25;;;26.40;46.70;;;;;;4948872;28;96992;-49
2022/08/14 03:53:24;;;;;;;62.38;51.13;;;26.40;46.70;;;;;;4950242;28;96103;-50
2022/08/14 03:55:49;;;;;;;62.00;51.08;;;26.40;46.80;;;;;;4944724;28;95528;-53
2022/08/14 03:58:16;;;;;;;61.70;51.13;;;26.40;46.80;;;;;;4947389;28;96593;-48
2022/08/14 04:00:41;;;;;;;62.22;51.40;;;26.40;46.90;;;;;;4945220;28;95936;-51
2022/08/14 04:03:09;;;;;;;63.03;51.35;;;26.30;46.90;;;;;;4948262;28;95396;-50
2022/08/14 04:05:37;;;;;;;61.88;51.22;;;26.40;47.00;;;;;;4942128;28;101787;-53
2022/08/14 04:08:07;;;;;;;62.70;51.20;;;26.40;47.70;;;;;;4945807;28;100843;-51
2022/08/14 04:10:33;;;;;;;61.67;51.03;;;26.30;47.10;;;;;;4943030;28;95049;-51
2022/08/14 04:13:03;;;;;;;61.53;51.05;;;26.40;47.20;;;;;;4952300;28;98179;-52
2022/08/14 04:15:28;;;;;;;61.83;51.05;;;26.30;47.20;;;;;;4949639;28;96369;-52
2022/08/14 04:17:55;;;;;;;61.85;51.15;;;26.30;47.30;;;;;;4948717;28;96159;-50
2022/08/14 04:20:21;;;;;;;62.38;51.30;;;26.30;47.30;;;;;;4945565;28;95553;-48
2022/08/14 04:22:49;;;;;;;61.80;50.97;;;26.30;47.30;;;;;;4951352;28;99663;-49
2022/08/14 04:25:15;;;;;;;61.75;50.78;;;26.30;47.30;;;;;;4943542;28;96935;-50
2022/08/14 04:27:40;;;;;;;61.50;50.92;;;26.30;47.40;;;;;;4951270;28;95202;-49
2022/08/14 04:30:07;;;;;;;61.67;50.90;;;26.30;47.40;;;;;;4948116;28;95141;-52
2022/08/14 04:32:32;;;;;;;62.85;51.22;;;26.20;47.40;;;;;;4949400;28;94836;-48
2022/08/14 04:35:01;;;;;;;61.30;50.88;;;26.20;47.40;;;;;;4947815;28;94897;-50
2022/08/14 04:45:42;;;;;;;62.90;51.05;;;26.20;47.60;;;;;;4946675;28;96323;-50
2022/08/14 04:48:13;;;;;;;61.90;51.33;;;26.20;47.70;;;;;;4949575;28;95196;-48
2022/08/14 04:50:50;;;;;;;62.13;51.10;;;26.20;47.70;;;;;;4950181;28;97953;-52
2022/08/14 04:53:21;;;;;;;61.88;51.00;;;26.20;47.80;;;;;;4949648;28;95311;-51
2022/08/14 04:55:49;;;;;;;61.70;50.80;;;26.20;47.80;;;;;;4941065;28;95199;-49
2022/08/14 04:58:16;;;;;;;61.65;51.05;;;26.20;47.80;;;;;;4949691;28;99991;-51
2022/08/14 05:00:43;;;;;;;61.83;51.05;;;26.20;47.80;;;;;;4943458;28;94599;-50
2022/08/14 05:03:09;;;;;;;61.47;51.03;;;26.20;47.80;;;;;;4948736;28;94876;-50
2022/08/14 05:05:35;;;;;;;61.47;50.85;;;26.20;48.00;;;;;;4946543;28;97354;-50
2022/08/14 05:08:11;;;;;;;61.80;51.10;;;26.20;47.80;;;;;;4953291;28;95242;-51
2022/08/14 05:10:51;;;;;;;62.47;51.15;;;26.20;47.80;;;;;;4945917;28;96728;-50
2022/08/14 05:13:25;;;;;;;62.15;50.88;;;26.20;47.70;;;;;;4950021;28;95399;-50
2022/08/14 05:15:52;;;;;;;62.05;51.15;;;26.20;47.80;;;;;;4944196;28;95407;-49
2022/08/14 05:18:30;;;;;;;61.83;51.28;;;26.20;47.80;;;;;;4952859;28;94697;-48
2022/08/14 05:20:59;;;;;;;61.85;51.03;;;26.20;47.70;;;;;;4948543;28;95992;-48
2022/08/14 05:23:30;;;;;;;61.58;50.92;;;26.20;47.80;;;;;;4945798;28;94690;-47
2022/08/14 05:26:00;;;;;;;61.95;51.03;;;26.20;47.80;;;;;;4948725;28;95558;-53
2022/08/14 05:28:28;;;;;;;61.80;50.97;;;26.20;47.80;;;;;;4951948;28;95211;-49
2022/08/14 05:30:56;;;;;;;61.70;51.03;;;26.20;47.90;;;;;;4954247;28;96625;-51
2022/08/14 05:33:27;;;;;;;61.30;51.10;;;26.20;48.00;;;;;;4954625;28;96519;-50
2022/08/14 05:36:01;;;;;;;61.50;50.85;;;26.20;47.90;;;;;;4951269;28;95243;-51
2022/08/14 05:38:34;;;;;;;61.60;50.97;;;26.20;48.00;;;;;;4941616;28;95555;-50
2022/08/14 05:41:05;;;;;;;61.78;51.03;;;26.20;48.00;;;;;;4944989;28;96013;-52
2022/08/14 05:43:31;;;;;;;;;;;26.30;48.00;;;;;;4945806;28;99341;-52
2022/08/14 05:45:58;;;;;;;61.67;50.85;;;26.20;48.00;;;;;;4948625;28;94949;-47
2022/08/14 05:48:25;;;;;;;61.92;50.95;;;26.20;48.00;;;;;;4952822;28;94321;-51
2022/08/14 05:50:53;;;;;;;61.53;50.85;;;26.20;48.00;;;;;;4948062;28;95452;-49
2022/08/14 05:53:20;;;;;;;61.38;51.20;;;26.20;48.10;;;;;;4945367;28;95202;-49
2022/08/14 05:55:47;;;;;;;61.70;51.13;;;26.20;48.00;;;;;;4950517;28;95987;-51
2022/08/14 05:58:13;;;;;;;61.92;51.15;;;26.20;48.00;;;;;;4946473;28;95109;-50
2022/08/14 06:00:41;;;;;;;61.28;50.72;;;26.30;48.10;;;;;;4943460;28;96792;-47
2022/08/14 06:03:13;;;;;;;61.70;50.80;;;26.30;48.10;;;;;;4953782;28;96662;-48
2022/08/14 06:05:40;;;;;;;61.85;51.13;;;26.30;48.10;;;;;;4952270;28;96397;-46
2022/08/14 06:08:16;;;;;;;61.28;51.03;;;26.30;48.10;;;;;;4958705;28;99258;-49
2022/08/14 06:10:42;;;;;;;61.10;50.92;;;26.20;48.10;;;;;;4947528;28;96303;-51
2022/08/14 06:13:08;;;;;;;61.33;50.95;;;26.30;48.20;;;;;;4941675;28;95685;-49
2022/08/14 06:15:34;;;;;;;61.60;50.90;;;26.30;48.20;;;;;;4951439;28;95046;-51
2022/08/14 06:18:00;;;;;;;61.67;50.83;;;26.30;48.10;;;;;;4945407;28;95208;-48
2022/08/14 06:20:26;;;;;;;61.58;51.00;;;26.30;48.10;;;;;;4943098;28;96538;-48
2022/08/14 06:22:52;;;;;;;61.53;51.08;;;26.30;48.10;;;;;;4954137;28;95506;-48
2022/08/14 06:25:18;;;;;;;61.67;50.95;;;26.30;48.10;;;;;;4949696;28;95211;-51
2022/08/14 06:27:45;;;;;;;61.58;51.13;;;26.40;48.10;;;;;;4946170;28;98044;-53
2022/08/14 06:30:14;;;;;;;61.42;51.05;;;26.40;48.10;;;;;;4942499;28;97363;-51
2022/08/14 06:32:39;;;;;;;62.22;51.25;;;26.30;47.90;;;;;;4951705;28;95948;-50
2022/08/14 06:35:07;;;;;;;61.85;51.03;;;26.40;48.00;;;;;;4944713;28;97505;-53
2022/08/14 06:37:42;;;;;;;61.42;50.88;;;26.40;48.00;;;;;;4945627;28;94412;-47
2022/08/14 06:40:11;;;;;;;61.70;50.90;;;26.40;47.90;;;;;;4949295;28;95327;-50
2022/08/14 06:42:37;;;;;;;61.45;51.10;;;26.40;47.90;;;;;;4951810;28;95462;-49
2022/08/14 06:45:03;;;;;;;62.08;51.20;;;26.40;47.90;;;;;;4961830;28;95923;-49
2022/08/14 06:47:32;;;;;;;61.72;51.03;;;26.40;48.00;;;;;;4943296;28;95023;-50
2022/08/14 06:49:57;;;;;;;61.58;51.05;;;26.40;48.00;;;;;;4947646;28;95565;-52
2022/08/14 06:52:23;;;;;;;61.97;51.22;;;26.40;48.10;;;;;;4947647;28;94964;-52
2022/08/14 06:54:49;;;;;;;62.65;51.30;;;26.50;48.00;;;;;;4949092;28;96352;-50
2022/08/14 06:57:14;;;;;;;61.85;51.13;;;26.50;48.00;;;;;;4947506;28;95138;-52
2022/08/14 06:59:40;;;;;;;61.97;51.30;;;26.50;47.90;;;;;;4950853;28;95602;-51
2022/08/14 07:07:40;;;;;;;61.65;51.20;;;26.50;47.80;;;;;;4940428;28;97300;-47
2022/08/14 07:10:07;;;;;;;61.50;51.05;;;26.50;47.70;;;;;;4946575;28;98008;-52
2022/08/14 07:12:33;;;;;;;62.22;51.25;;;26.60;47.80;;;;;;4944075;28;96294;-48
2022/08/14 07:14:59;;;;;;;62.40;51.47;;;26.60;47.80;;;;;;4952546;28;96460;-48
2022/08/14 07:17:25;;;;;;;62.25;51.42;;;26.60;47.80;;;;;;4943195;28;94660;-48
2022/08/14 07:19:51;;;;;;;61.95;51.25;;;26.60;47.80;;;;;;4947788;28;95720;-50
2022/08/14 07:22:17;;;;;;;61.88;51.10;;;26.60;47.90;;;;;;4947891;28;100451;-51
2022/08/14 07:24:43;;;;;;;61.85;51.35;;;26.60;47.80;;;;;;4951594;28;95122;-50
2022/08/14 07:27:08;;;;;;;62.53;51.65;;;26.60;47.80;;;;;;4941594;28;94343;-50
2022/08/14 07:29:34;;;;;;;61.90;51.42;;;26.60;47.90;;;;;;4942987;28;96167;-52
2022/08/14 07:32:00;;;;;;;62.15;51.33;;;26.60;47.90;;;;;;4951390;28;95500;-50
2022/08/14 07:34:25;;;;;;;62.25;51.42;;;26.60;47.90;;;;;;4946837;28;100449;-53
2022/08/14 07:36:51;;;;;;;62.65;51.55;;;26.60;47.90;;;;;;4944493;28;97790;-48
2022/08/14 07:39:17;;;;;;;62.30;51.47;;;26.60;48.00;;;;;;4945924;28;96682;-53
2022/08/14 07:41:43;;;;;;;62.53;51.63;;;26.60;48.00;;;;;;4941691;28;95914;-48
2022/08/14 07:44:12;;;;;;;62.35;51.53;;;26.70;47.90;;;;;;4947442;28;95051;-48
2022/08/14 07:46:39;;;;;;;62.53;51.50;;;26.70;48.00;;;;;;4943505;28;95016;-49
2022/08/14 07:49:06;;;;;;;62.40;51.45;;;26.70;48.50;;;;;;4939908;28;95297;-52
2022/08/14 07:51:32;;;;;;;62.45;51.30;;;26.80;48.00;;;;;;4949486;28;95363;-52
2022/08/14 07:53:58;;;;;;;62.58;51.55;;;26.70;48.10;;;;;;4939589;28;97428;-51
2022/08/14 07:56:24;;;;;;;62.83;51.72;;;26.70;47.60;;;;;;4946611;28;95434;-49
2022/08/14 07:58:51;;;;;;;62.15;51.40;;;26.70;47.70;;;;;;4944761;28;97128;-53
2022/08/14 08:01:17;;;;;;;63.08;51.50;;;26.80;47.70;;;;;;4950468;28;95425;-50
2022/08/14 08:03:46;;;;;;;62.75;51.60;;;26.80;47.90;;;;;;4947064;28;95613;-51
2022/08/14 08:06:15;;;;;;;62.28;51.58;;;26.70;47.60;;;;;;4944443;28;96973;-49
2022/08/14 08:08:42;;;;;;;62.38;51.55;;;26.80;47.80;;;;;;4949167;28;95717;-50
2022/08/14 08:11:10;;;;;;;62.85;51.58;;;26.80;47.80;;;;;;4947262;28;96204;-51
2022/08/14 08:13:41;;;;;;;63.45;51.75;;;26.80;48.10;;;;;;4941899;28;95335;-50
2022/08/14 08:16:07;;;;;;;63.00;51.53;;;26.80;47.80;;;;;;4945915;28;93995;-50
2022/08/14 08:18:34;;;;;;;62.95;51.95;;;26.80;48.00;;;;;;4955789;28;95372;-49
2022/08/14 08:21:00;;;;;;;62.80;51.70;;;26.80;48.10;;;;;;4949081;28;95173;-52
2022/08/14 08:23:28;;;;;;;62.78;51.65;;;26.90;48.50;;;;;;4946659;28;98323;-47
2022/08/14 08:25:54;;;;;;;63.97;51.72;;;26.80;48.30;;;;;;4946025;28;100370;-51
2022/08/14 08:28:23;;;;;;;62.97;51.80;;;26.80;48.50;;;;;;4950158;28;95371;-50
2022/08/14 08:30:53;;;;;;;62.70;51.53;;;26.80;48.60;;;;;;4941941;28;98259;-48
2022/08/14 08:33:20;;;;;;;63.25;51.92;;;26.80;48.70;;;;;;4940028;28;96634;-52
2022/08/14 08:35:47;;;;;;;62.95;51.65;;;26.90;48.90;;;;;;4948589;28;95110;-51
2022/08/14 08:38:18;;;;;;;63.00;51.78;;;26.80;48.80;;;;;;4948422;28;95569;-51
2022/08/14 08:40:49;;;;;;;62.80;51.72;;;26.90;48.80;;;;;;4949320;28;95534;-51
2022/08/14 08:43:27;;;;;;;63.47;51.83;;;26.90;48.70;;;;;;4945999;28;95042;-49
2022/08/14 08:46:03;;;;;;;63.28;51.95;;;26.90;48.80;;;;;;4943320;28;95769;-53
2022/08/14 08:48:52;;;;;;;63.03;51.90;;;26.90;48.80;;;;;;4948337;28;96352;-50
2022/08/14 08:51:30;;;;;;;63.35;51.80;;;26.90;48.70;;;;;;4951597;28;96442;-51
2022/08/14 08:54:15;;;;;;;63.25;51.83;;;26.90;48.60;;;;;;4952481;28;95247;-53
2022/08/14 08:56:51;;;;;;;63.28;51.70;;;26.90;48.30;;;;;;4951759;28;94807;-52
2022/08/14 08:59:25;;;;;;;63.28;51.92;;;26.90;48.30;;;;;;4947516;28;94690;-51
2022/08/14 09:01:57;;;;;;;63.63;52.03;;;27.00;48.30;;;;;;4947927;28;95041;-52
2022/08/14 09:04:40;;;;;;;63.30;52.00;;;27.00;48.30;;;;;;4940968;28;95081;-51
2022/08/14 09:07:06;;;;;;;63.22;51.85;;;27.00;48.20;;;;;;4948919;28;94726;-54
2022/08/14 09:09:33;;;;;;;63.80;52.15;;;27.00;47.90;;;;;;4945943;28;96336;-53
2022/08/14 09:12:02;;;;;;;63.60;52.13;;;27.00;47.80;;;;;;4944935;28;100487;-53
2022/08/14 09:14:30;;;;;;;64.10;52.40;;;27.00;47.80;;;;;;4954863;28;96982;-52
2022/08/14 09:16:58;;;;;;;65.65;52.42;;;26.90;47.60;;;;;;4951497;28;98540;-53
2022/08/14 09:19:24;;;;;;;66.55;52.35;;;27.00;47.50;;;;;;4953549;28;95356;-52
2022/08/14 09:21:50;;;;;;;64.88;52.67;;;27.00;47.40;;;;;;4942835;28;95129;-51
2022/08/14 09:24:16;;;;;;;65.97;52.75;;;27.10;47.20;;;;;;4938049;28;97413;-52
2022/08/14 09:26:44;;;;;;;66.53;52.65;;;27.10;47.10;;;;;;4947113;28;95206;-52
2022/08/14 09:29:11;;;;;;;65.10;52.60;;;27.10;47.00;;;;;;4944143;28;95736;-51
2022/08/14 09:31:44;;;;;;;66.10;52.70;;;27.20;47.00;;;;;;4943109;28;95158;-54
2022/08/14 09:34:31;;;;;;;66.47;52.78;;;27.20;46.90;;;;;;4947424;28;98837;-53
2022/08/14 09:37:30;;;;;;;65.22;52.58;;;27.20;46.80;;;;;;4942041;28;94973;-49
2022/08/14 09:40:09;;;;;;;64.78;52.70;;;27.30;46.60;;;;;;4952441;28;97776;-54
2022/08/14 09:43:05;;;;;;;65.13;52.47;;;27.30;46.60;;;;;;4943207;28;95052;-52
2022/08/14 09:45:38;;;;;;;65.95;52.90;;;27.30;46.60;;;;;;4944216;28;96376;-54
2022/08/14 09:48:15;;;;;;;64.88;52.90;;;27.30;46.40;;;;;;4947311;28;99064;-52
2022/08/14 09:50:48;;;;;;;66.53;52.85;;;27.30;46.30;;;;;;4942845;28;95394;-53
2022/08/14 09:53:17;;;;;;;65.95;52.80;;;27.30;46.30;;;;;;4956198;28;95194;-53
2022/08/14 09:55:43;;;;;;;66.05;52.83;;;27.30;46.20;;;;;;4943582;28;94897;-50
2022/08/14 09:58:13;;;;;;;65.32;52.78;;;27.40;46.20;;;;;;4938230;28;95825;-52
2022/08/14 10:00:42;;;;;;;66.22;53.05;;;27.30;46.10;;;;;;4933804;28;99070;-54
2022/08/14 10:03:08;;;;;;;65.22;52.65;;;27.40;46.10;;;;;;4947429;28;95611;-53
2022/08/14 10:05:35;;;;;;;65.65;52.97;;;27.40;46.00;;;;;;4947456;28;98249;-53
2022/08/14 10:08:03;;;;;;;66.50;53.40;;;27.40;46.00;;;;;;4942978;28;96385;-52
2022/08/14 10:10:32;;;;;;;65.10;52.83;;;27.40;45.90;;;;;;4952162;28;95782;-52
2022/08/14 10:13:00;;;;;;;66.70;53.08;;;27.40;45.90;;;;;;4947644;28;99620;-53
2022/08/14 10:15:28;;;;;;;66.55;52.88;;;27.40;45.90;;;;;;4949020;28;97032;-54
2022/08/14 10:18:06;;;;;;;67.13;53.05;;;27.40;45.80;;;;;;4939513;28;96021;-49
2022/08/14 10:20:40;;;;;;;64.93;52.90;;;27.40;45.80;;;;;;4938325;28;95775;-51
2022/08/14 10:23:18;;;;;;;66.28;53.35;;;27.40;45.80;;;;;;4948273;28;97102;-53
2022/08/14 10:25:51;;;;;;;65.07;53.05;;;27.50;45.80;;;;;;4945677;28;95455;-53
2022/08/14 10:28:19;;;;;;;65.35;53.15;;;27.50;45.80;;;;;;4949293;28;95820;-53
2022/08/14 10:30:51;;;;;;;66.53;52.85;;;27.50;45.80;;;;;;4946114;28;97347;-51
2022/08/14 10:33:31;;;;;;;65.40;52.83;;;27.50;45.80;;;;;;4943861;28;95851;-54
2022/08/14 10:36:01;;;;;;;66.78;52.80;;;27.50;45.80;;;;;;4936653;28;97275;-51
2022/08/14 10:38:31;;;;;;;65.47;53.17;;;27.50;45.80;;;;;;4946254;28;96192;-52
2022/08/14 10:41:15;;;;;;;65.82;53.15;;;27.50;45.70;;;;;;4946963;28;95313;-54
2022/08/14 10:43:43;;;;;;;66.18;53.30;;;27.60;45.80;;;;;;4942288;28;95761;-53
2022/08/14 10:46:14;;;;;;;64.65;52.95;;;27.60;45.70;;;;;;4943727;28;96394;-51
2022/08/14 10:48:41;;;;;;;65.55;53.35;;;27.50;45.70;;;;;;4960661;28;93987;-54
2022/08/14 10:51:07;;;;;;;66.10;53.05;;;27.50;45.70;;;;;;4947158;28;97915;-50
2022/08/14 10:53:35;;;;;;;66.05;53.40;;;27.50;45.70;;;;;;4948409;28;95474;-53
2022/08/14 10:56:06;;;;;;;66.70;53.17;;;27.60;45.70;;;;;;4940874;28;95795;-52
2022/08/14 10:58:33;;;;;;;65.18;52.97;;;27.60;45.70;;;;;;4940620;28;95728;-54
2022/08/14 11:01:04;;;;;;;66.55;52.78;;;27.60;45.70;;;;;;4945293;28;98492;-54
2022/08/14 11:03:41;;;;;;;65.72;53.10;;;27.60;45.70;;;;;;4945339;28;95678;-52
2022/08/14 11:06:21;;;;;;;65.05;53.00;;;27.60;45.70;;;;;;4946444;28;94879;-51
2022/08/14 11:08:47;;;;;;;65.50;53.13;;;27.60;45.70;;;;;;4953479;28;95212;-54
2022/08/14 11:11:14;;;;;;;65.43;53.22;;;27.60;45.60;;;;;;4938739;28;95168;-53
2022/08/14 11:13:45;;;;;;;65.40;53.22;;;27.60;45.70;;;;;;4942804;28;95402;-48
2022/08/14 11:16:13;;;;;;;65.00;53.20;;;27.70;45.80;;;;;;4944467;28;95946;-52
2022/08/14 11:18:44;;;;;;;65.15;53.13;;;27.50;45.90;;;;;;4943247;28;103981;-48
2022/08/14 11:21:19;;;;;;;65.78;52.83;;;27.50;46.30;;;;;;4941979;28;97102;-48
2022/08/14 11:23:48;;;;;;;65.00;52.95;;;27.40;46.40;;;;;;4943237;28;97702;-46
2022/08/14 11:26:18;;;;;;;66.20;53.15;;;27.40;46.50;;;;;;4952748;28;95144;-49
2022/08/14 11:28:47;;;;;;;65.57;53.08;;;27.40;46.70;;;;;;4944406;28;95963;-50
2022/08/14 11:31:14;;;;;;;64.88;52.83;;;27.40;46.70;;;;;;4940106;28;96890;-51
2022/08/14 11:33:40;;;;;;;65.90;53.15;;;27.40;46.70;;;;;;4946997;28;99144;-51
2022/08/14 11:36:10;;;;;;;65.65;53.22;;;27.40;46.80;;;;;;4953688;28;95033;-47
2022/08/14 11:38:45;;;;;;;64.78;52.92;;;27.40;46.90;;;;;;4942822;28;98266;-49
2022/08/14 11:41:13;;;;;;;65.40;52.90;;;27.40;46.90;;;;;;4945608;28;96163;-52
2022/08/14 11:43:44;;;;;;;65.47;52.72;;;27.40;47.00;;;;;;4948482;28;97369;-54
2022/08/14 11:46:11;;;;;;;66.47;52.92;;;27.40;47.00;;;;;;4944886;28;97498;-51
2022/08/14 11:48:48;;;;;;;67.05;53.00;;;27.40;47.00;;;;;;4950164;28;95895;-48
2022/08/14 11:51:22;;;;;;;65.15;53.03;;;27.40;47.00;;;;;;4936755;28;96738;-49
2022/08/14 11:54:01;;;;;;;65.75;53.28;;;27.50;47.10;;;;;;4943262;28;97089;-51
2022/08/14 11:56:34;;;;;;;65.65;52.85;;;27.40;47.10;;;;;;4935466;28;96677;-54
2022/08/14 11:59:00;;;;;;;64.82;53.00;;;27.40;47.10;;;;;;4940212;28;101083;-49
2022/08/14 12:01:30;;;;;;;64.85;53.03;;;27.40;47.20;;;;;;4941586;28;98471;-49
2022/08/14 12:04:16;;;;;;;65.88;52.85;;;27.50;47.20;;;;;;4950354;28;94817;-48
2022/08/14 12:06:51;;;;;;;65.10;53.00;;;27.50;47.40;;;;;;4941025;28;94787;-49
2022/08/14 12:09:35;;;;;;;64.68;52.83;;;27.50;47.30;;;;;;4943060;28;96960;-50
2022/08/14 12:12:22;;;;;;;64.57;53.03;;;27.50;47.30;;;;;;4935567;28;96318;-51
2022/08/14 12:14:57;;;;;;;65.22;53.08;;;27.50;47.30;;;;;;4944297;28;95545;-52
2022/08/14 12:17:24;;;;;;;65.13;52.88;;;27.50;47.40;;;;;;4944295;28;95440;-48
2022/08/14 12:19:53;;;;;;;66.80;53.00;;;27.50;47.30;;;;;;4952731;28;99008;-48
2022/08/14 12:22:41;;;;;;;66.35;53.38;;;27.50;47.40;;;;;;4949465;28;96108;-48
2022/08/14 12:25:19;;;;;;;64.45;52.60;;;27.50;47.40;;;;;;4943168;28;95520;-49
2022/08/14 12:27:51;;;;;;;65.95;53.00;;;27.60;47.40;;;;;;4946093;28;98018;-49
2022/08/14 12:30:34;;;;;;;65.00;52.70;;;27.60;47.40;;;;;;4946700;28;94117;-52
2022/08/14 12:33:02;;;;;;;64.40;52.60;;;27.50;47.40;;;;;;4939840;28;98601;-52
2022/08/14 12:35:57;;;;;;;64.53;52.80;;;27.60;47.40;;;;;;4953147;28;96075;-51
2022/08/14 12:38:37;;;;;;;64.68;53.00;;;27.60;47.40;;;;;;4943489;28;96264;-52
2022/08/14 12:41:08;;;;;;;66.05;53.22;;;27.60;47.40;;;;;;4953150;28;97229;-49
2022/08/14 12:44:03;;;;;;;65.65;53.08;;;27.60;47.40;;;;;;4952053;28;95269;-52
2022/08/14 12:46:40;;;;;;;64.80;53.05;;;27.60;47.40;;;;;;4949530;28;104466;-52
2022/08/14 12:49:16;;;;;;;65.10;53.28;;;27.60;47.40;;;;;;4952614;28;95106;-50
2022/08/14 12:51:42;;;;;;;65.90;53.33;;;27.60;47.40;;;;;;4946807;28;94950;-53
2022/08/14 12:54:17;;;;;;;64.90;53.13;;;27.60;47.40;;;;;;4943482;28;95895;-51